FRS174N EDXH-EDXH
Flight info
| Callsign | FRS174N |
|---|---|
| Flight time | 0h 3m |
| Altitude | 1000 |
| Route | PLATZRUNDE |
| Aircraft | C172/L-DFGLOY/7000 |
Departure
| Time | 2026-04-24 19:27 |
|---|---|
| Airport | Helgoland-Düne Airport (EDXH) |
Arrival
| Time | 2026-04-24 19:30 |
|---|---|
| Airport | Helgoland-Düne Airport (EDXH) |
| Time | Latitude | Longitude | Altitude | Speed | Heading |
|---|---|---|---|---|---|
| 2026-04-24 19:02 | 54.18767 | 7.91617 | 5 ft | 0 kts | 144° |
| 2026-04-24 19:03 | 54.18765 | 7.91617 | 4 ft | 1 kts | 182° |
| 2026-04-24 19:03 | 54.18738 | 7.91595 | 4 ft | 2 kts | 215° |
| 2026-04-24 19:03 | 54.18711 | 7.91577 | 5 ft | 16 kts | 149° |
| 2026-04-24 19:04 | 54.18671 | 7.91524 | 7 ft | 0 kts | 258° |
| 2026-04-24 19:04 | 54.18656 | 7.91462 | 7 ft | 10 kts | 247° |
| 2026-04-24 19:04 | 54.18650 | 7.91441 | 7 ft | 0 kts | 236° |
| 2026-04-24 19:05 | 54.18635 | 7.91416 | 7 ft | 8 kts | 189° |
| 2026-04-24 19:05 | 54.18625 | 7.91409 | 6 ft | 0 kts | 209° |
| 2026-04-24 19:06 | 54.18624 | 7.91405 | 6 ft | 1 kts | 249° |
| 2026-04-24 19:06 | 54.18615 | 7.91384 | 5 ft | 0 kts | 230° |
| 2026-04-24 19:24 | 54.18611 | 7.91374 | 5 ft | 7 kts | 232° |
| 2026-04-24 19:24 | 54.18531 | 7.91445 | 6 ft | 14 kts | 149° |
| 2026-04-24 19:24 | 54.18434 | 7.91569 | 6 ft | 23 kts | 142° |
| 2026-04-24 19:25 | 54.18341 | 7.91688 | 8 ft | 4 kts | 148° |
| 2026-04-24 19:25 | 54.18334 | 7.91670 | 8 ft | 8 kts | 295° |
| 2026-04-24 19:25 | 54.18339 | 7.91663 | 8 ft | 0 kts | 330° |
| 2026-04-24 19:25 | 54.18360 | 7.91636 | 7 ft | 21 kts | 322° |
| 2026-04-24 19:26 | 54.18602 | 7.91326 | 67 ft | 51 kts | 321° |
| 2026-04-24 19:26 | 54.18854 | 7.90919 | 96 ft | 51 kts | 315° |
| 2026-04-24 19:26 | 54.19012 | 7.90486 | 191 ft | 42 kts | 301° |
| 2026-04-24 19:26 | 54.19094 | 7.90033 | 339 ft | 48 kts | 297° |
| 2026-04-24 19:27 | 54.19216 | 7.89462 | 486 ft | 57 kts | 315° |
| 2026-04-24 19:27 | 54.19540 | 7.89187 | 621 ft | 64 kts | 354° |
| 2026-04-24 19:27 | 54.19893 | 7.89715 | 675 ft | 82 kts | 59° |
| 2026-04-24 19:27 | 54.20078 | 7.90615 | 605 ft | 84 kts | 54° |
| 2026-04-24 19:28 | 54.20336 | 7.91465 | 641 ft | 76 kts | 39° |
| 2026-04-24 19:28 | 54.20659 | 7.92103 | 667 ft | 63 kts | 31° |
| 2026-04-24 19:28 | 54.20785 | 7.92878 | 666 ft | 86 kts | 99° |
| 2026-04-24 19:28 | 54.20299 | 7.93599 | 557 ft | 101 kts | 158° |
| 2026-04-24 19:29 | 54.19103 | 7.94552 | 368 ft | 97 kts | 146° |
| 2026-04-24 19:29 | 54.18601 | 7.95263 | 299 ft | 91 kts | 140° |
| 2026-04-24 19:29 | 54.18111 | 7.95957 | 243 ft | 85 kts | 170° |
| 2026-04-24 19:30 | 54.17649 | 7.95697 | 118 ft | 75 kts | 232° |
| 2026-04-24 19:30 | 54.17239 | 7.95274 | 185 ft | 69 kts | 223° |
| 2026-04-24 19:30 | 54.16785 | 7.94930 | 266 ft | 73 kts | 223° |
| 2026-04-24 19:30 | 54.16587 | 7.94475 | 333 ft | 39 kts | 308° |
| 2026-04-24 19:31 | 54.16708 | 7.94227 | 278 ft | 41 kts | 314° |
| 2026-04-24 19:31 | 54.16908 | 7.93872 | 220 ft | 43 kts | 316° |
| 2026-04-24 19:31 | 54.17121 | 7.93529 | 183 ft | 42 kts | 322° |
| 2026-04-24 19:31 | 54.17342 | 7.93226 | 172 ft | 40 kts | 320° |
| 2026-04-24 19:32 | 54.17564 | 7.92929 | 147 ft | 42 kts | 322° |
| 2026-04-24 19:32 | 54.17783 | 7.92631 | 142 ft | 39 kts | 319° |
| 2026-04-24 19:32 | 54.18000 | 7.92345 | 102 ft | 40 kts | 324° |
| 2026-04-24 19:32 | 54.18233 | 7.92058 | 60 ft | 40 kts | 323° |
| 2026-04-24 19:33 | 54.18450 | 7.91824 | 44 ft | 34 kts | 326° |
| 2026-04-24 19:33 | 54.18579 | 7.91574 | 34 ft | 34 kts | 295° |
| 2026-04-24 19:33 | 54.18691 | 7.91311 | 57 ft | 36 kts | 338° |
| 2026-04-24 19:33 | 54.18973 | 7.91142 | 222 ft | 43 kts | 329° |
| 2026-04-24 19:34 | 54.19218 | 7.90743 | 407 ft | 43 kts | 305° |
| 2026-04-24 19:34 | 54.19348 | 7.90262 | 487 ft | 41 kts | 313° |
| 2026-04-24 19:34 | 54.19628 | 7.90206 | 548 ft | 52 kts | 6° |
| 2026-04-24 19:34 | 54.19932 | 7.90706 | 554 ft | 69 kts | 38° |
| 2026-04-24 19:35 | 54.20128 | 7.91492 | 574 ft | 71 kts | 51° |
| 2026-04-24 19:35 | 54.20314 | 7.92263 | 602 ft | 69 kts | 48° |
| 2026-04-24 19:35 | 54.20421 | 7.93104 | 572 ft | 88 kts | 105° |
| 2026-04-24 19:35 | 54.19985 | 7.93850 | 493 ft | 96 kts | 145° |
| 2026-04-24 19:36 | 54.19450 | 7.94459 | 452 ft | 92 kts | 154° |
| 2026-04-24 19:36 | 54.18885 | 7.95019 | 357 ft | 96 kts | 158° |
| 2026-04-24 19:36 | 54.18306 | 7.95524 | 326 ft | 93 kts | 161° |
| 2026-04-24 19:36 | 54.17793 | 7.95569 | 332 ft | 60 kts | 238° |
| 2026-04-24 19:37 | 54.17431 | 7.95071 | 238 ft | 68 kts | 237° |
| 2026-04-24 19:37 | 54.17029 | 7.94633 | 369 ft | 71 kts | 229° |
| 2026-04-24 19:37 | 54.16806 | 7.94086 | 476 ft | 50 kts | 294° |
| 2026-04-24 19:37 | 54.16900 | 7.93476 | 441 ft | 53 kts | 299° |
| 2026-04-24 19:38 | 54.17140 | 7.93081 | 349 ft | 49 kts | 323° |
| 2026-04-24 19:38 | 54.17431 | 7.92770 | 235 ft | 48 kts | 327° |
| 2026-04-24 19:38 | 54.17692 | 7.92457 | 156 ft | 45 kts | 324° |
| 2026-04-24 19:38 | 54.17943 | 7.92154 | 89 ft | 44 kts | 323° |
| 2026-04-24 19:39 | 54.18180 | 7.91865 | 33 ft | 40 kts | 322° |
| 2026-04-24 19:39 | 54.18375 | 7.91608 | 6 ft | 28 kts | 327° |
| 2026-04-24 19:39 | 54.18478 | 7.91480 | 7 ft | 19 kts | 323° |
| 2026-04-24 19:39 | 54.18571 | 7.91385 | 4 ft | 12 kts | 359° |
| 2026-04-24 19:40 | 54.18594 | 7.91402 | 4 ft | 8 kts | 38° |
| 2026-04-24 19:40 | 54.18622 | 7.91401 | 6 ft | 0 kts | 244° |
| 2026-04-24 19:40 | 54.18619 | 7.91390 | 6 ft | 0 kts | 238° |